sensor_id;sensor_type;location;lat;lon;timestamp;pressure;altitude;pressure_sealevel;temperature;humidity
55916;BME280;41826;53.246;-6.670;2023-07-20T00:02:13;99178.06;;;16.57;100.00
55916;BME280;41826;53.246;-6.670;2023-07-20T00:04:39;99180.56;;;16.52;100.00
55916;BME280;41826;53.246;-6.670;2023-07-20T00:07:04;99184.91;;;16.46;100.00
55916;BME280;41826;53.246;-6.670;2023-07-20T00:09:30;99172.97;;;16.12;100.00
55916;BME280;41826;53.246;-6.670;2023-07-20T00:11:55;99434.63;;;15.56;100.00
55916;BME280;41826;53.246;-6.670;2023-07-20T00:14:21;99589.06;;;15.62;100.00
55916;BME280;41826;53.246;-6.670;2023-07-20T00:16:47;99752.19;;;15.35;100.00
55916;BME280;41826;53.246;-6.670;2023-07-20T00:19:17;99769.56;;;15.57;100.00
55916;BME280;41826;53.246;-6.670;2023-07-20T00:21:42;99613.09;;;15.87;100.00
55916;BME280;41826;53.246;-6.670;2023-07-20T00:24:08;99734.75;;;15.47;100.00
55916;BME280;41826;53.246;-6.670;2023-07-20T00:26:34;99810.53;;;15.27;100.00
55916;BME280;41826;53.246;-6.670;2023-07-20T00:28:59;100043.44;;;14.67;100.00
55916;BME280;41826;53.246;-6.670;2023-07-20T00:31:24;100197.31;;;14.84;100.00
55916;BME280;41826;53.246;-6.670;2023-07-20T00:33:52;100250.06;;;14.78;100.00
55916;BME280;41826;53.246;-6.670;2023-07-20T00:36:17;100348.28;;;14.43;100.00
55916;BME280;41826;53.246;-6.670;2023-07-20T00:38:42;100438.56;;;14.70;100.00
55916;BME280;41826;53.246;-6.670;2023-07-20T00:41:10;100469.97;;;14.88;100.00
55916;BME280;41826;53.246;-6.670;2023-07-20T00:43:35;100417.03;;;14.96;100.00
55916;BME280;41826;53.246;-6.670;2023-07-20T00:46:01;100415.97;;;15.05;100.00
55916;BME280;41826;53.246;-6.670;2023-07-20T00:48:29;100436.34;;;14.82;100.00
55916;BME280;41826;53.246;-6.670;2023-07-20T00:50:55;100493.25;;;14.69;100.00
55916;BME280;41826;53.246;-6.670;2023-07-20T00:53:21;100542.63;;;14.69;100.00
55916;BME280;41826;53.246;-6.670;2023-07-20T00:55:46;100588.66;;;14.74;100.00
55916;BME280;41826;53.246;-6.670;2023-07-20T00:58:12;100533.84;;;15.00;100.00
55916;BME280;41826;53.246;-6.670;2023-07-20T01:00:38;100346.50;;;15.26;100.00
55916;BME280;41826;53.246;-6.670;2023-07-20T01:03:03;100129.38;;;15.57;100.00
55916;BME280;41826;53.246;-6.670;2023-07-20T01:05:38;100147.69;;;15.37;100.00
55916;BME280;41826;53.246;-6.670;2023-07-20T01:08:17;100314.22;;;14.71;100.00
55916;BME280;41826;53.246;-6.670;2023-07-20T01:10:55;100482.09;;;14.51;100.00
55916;BME280;41826;53.246;-6.670;2023-07-20T01:13:23;100612.81;;;14.63;100.00
55916;BME280;41826;53.246;-6.670;2023-07-20T01:15:57;100488.69;;;15.01;100.00
55916;BME280;41826;53.246;-6.670;2023-07-20T01:18:24;100272.13;;;15.29;100.00
55916;BME280;41826;53.246;-6.670;2023-07-20T01:20:50;100340.66;;;15.01;100.00
55916;BME280;41826;53.246;-6.670;2023-07-20T01:23:49;100489.72;;;14.46;100.00
55916;BME280;41826;53.246;-6.670;2023-07-20T01:29:51;100940.53;;;13.78;100.00
55916;BME280;41826;53.246;-6.670;2023-07-20T01:32:18;101102.28;;;13.97;100.00
55916;BME280;41826;53.246;-6.670;2023-07-20T01:34:49;101155.44;;;14.02;100.00
55916;BME280;41826;53.246;-6.670;2023-07-20T01:37:17;101199.06;;;13.88;100.00
55916;BME280;41826;53.246;-6.670;2023-07-20T01:39:45;101247.06;;;13.92;100.00
55916;BME280;41826;53.246;-6.670;2023-07-20T01:42:12;101315.50;;;13.85;100.00
55916;BME280;41826;53.246;-6.670;2023-07-20T01:44:38;101379.09;;;13.82;100.00
55916;BME280;41826;53.246;-6.670;2023-07-20T01:47:04;101418.66;;;13.92;100.00
55916;BME280;41826;53.246;-6.670;2023-07-20T01:49:29;101432.53;;;13.94;100.00
55916;BME280;41826;53.246;-6.670;2023-07-20T01:51:54;101383.16;;;14.22;100.00
55916;BME280;41826;53.246;-6.670;2023-07-20T01:54:20;101159.19;;;14.51;100.00
55916;BME280;41826;53.246;-6.670;2023-07-20T01:56:46;100881.50;;;14.63;100.00
55916;BME280;41826;53.246;-6.670;2023-07-20T01:59:12;100884.97;;;14.55;100.00
55916;BME280;41826;53.246;-6.670;2023-07-20T02:01:37;100895.50;;;14.47;100.00
55916;BME280;41826;53.246;-6.670;2023-07-20T02:04:02;100960.63;;;14.14;100.00
55916;BME280;41826;53.246;-6.670;2023-07-20T02:06:28;101043.34;;;13.88;100.00
55916;BME280;41826;53.246;-6.670;2023-07-20T02:08:53;101106.88;;;13.95;100.00
55916;BME280;41826;53.246;-6.670;2023-07-20T02:11:19;101165.78;;;13.77;100.00
55916;BME280;41826;53.246;-6.670;2023-07-20T02:13:44;101217.91;;;13.93;100.00
55916;BME280;41826;53.246;-6.670;2023-07-20T02:16:10;101232.28;;;13.99;100.00
55916;BME280;41826;53.246;-6.670;2023-07-20T02:18:36;101260.97;;;13.94;100.00
55916;BME280;41826;53.246;-6.670;2023-07-20T02:21:02;101290.97;;;13.93;100.00
55916;BME280;41826;53.246;-6.670;2023-07-20T02:23:27;101321.16;;;13.90;100.00
55916;BME280;41826;53.246;-6.670;2023-07-20T02:25:53;101342.72;;;14.03;100.00
55916;BME280;41826;53.246;-6.670;2023-07-20T02:28:18;101302.00;;;14.06;100.00
55916;BME280;41826;53.246;-6.670;2023-07-20T02:30:43;101301.38;;;14.12;100.00
55916;BME280;41826;53.246;-6.670;2023-07-20T02:33:09;101267.41;;;14.17;100.00
55916;BME280;41826;53.246;-6.670;2023-07-20T02:35:34;101234.44;;;14.21;100.00
55916;BME280;41826;53.246;-6.670;2023-07-20T02:37:59;101208.03;;;14.21;100.00
55916;BME280;41826;53.246;-6.670;2023-07-20T02:40:26;101188.09;;;14.27;100.00
55916;BME280;41826;53.246;-6.670;2023-07-20T02:42:52;101083.16;;;14.29;100.00
55916;BME280;41826;53.246;-6.670;2023-07-20T02:45:18;100912.50;;;14.36;100.00
55916;BME280;41826;53.246;-6.670;2023-07-20T02:47:44;100706.13;;;14.47;100.00
55916;BME280;41826;53.246;-6.670;2023-07-20T02:50:09;100439.75;;;14.67;100.00
55916;BME280;41826;53.246;-6.670;2023-07-20T02:52:34;100272.94;;;14.70;100.00
55916;BME280;41826;53.246;-6.670;2023-07-20T02:55:00;100126.53;;;14.80;100.00
55916;BME280;41826;53.246;-6.670;2023-07-20T02:57:26;100020.06;;;14.86;100.00
55916;BME280;41826;53.246;-6.670;2023-07-20T02:59:52;99921.09;;;14.88;100.00
55916;BME280;41826;53.246;-6.670;2023-07-20T03:02:17;99850.56;;;14.89;100.00
55916;BME280;41826;53.246;-6.670;2023-07-20T03:04:42;99797.28;;;14.85;100.00
55916;BME280;41826;53.246;-6.670;2023-07-20T03:07:11;99857.00;;;14.80;100.00
55916;BME280;41826;53.246;-6.670;2023-07-20T03:09:36;100050.34;;;14.68;100.00
55916;BME280;41826;53.246;-6.670;2023-07-20T03:12:01;100178.06;;;14.31;100.00
55916;BME280;41826;53.246;-6.670;2023-07-20T03:14:29;100355.75;;;13.85;100.00
55916;BME280;41826;53.246;-6.670;2023-07-20T03:16:54;100529.91;;;13.85;100.00
55916;BME280;41826;53.246;-6.670;2023-07-20T03:19:20;100662.34;;;13.73;100.00
55916;BME280;41826;53.246;-6.670;2023-07-20T03:21:45;100809.81;;;13.41;100.00
55916;BME280;41826;53.246;-6.670;2023-07-20T03:24:11;100967.34;;;13.65;100.00
55916;BME280;41826;53.246;-6.670;2023-07-20T03:26:36;101036.31;;;13.71;100.00
55916;BME280;41826;53.246;-6.670;2023-07-20T03:29:02;101034.53;;;13.79;100.00
55916;BME280;41826;53.246;-6.670;2023-07-20T03:31:27;100951.47;;;13.92;100.00
55916;BME280;41826;53.246;-6.670;2023-07-20T03:33:53;100886.16;;;13.94;100.00
55916;BME280;41826;53.246;-6.670;2023-07-20T03:36:18;100699.06;;;14.15;100.00
55916;BME280;41826;53.246;-6.670;2023-07-20T03:38:44;100465.53;;;14.34;100.00
55916;BME280;41826;53.246;-6.670;2023-07-20T03:41:09;100244.13;;;14.61;100.00
55916;BME280;41826;53.246;-6.670;2023-07-20T03:43:37;100053.56;;;14.79;100.00
55916;BME280;41826;53.246;-6.670;2023-07-20T03:46:02;99967.59;;;14.83;100.00
55916;BME280;41826;53.246;-6.670;2023-07-20T03:48:32;99866.94;;;14.78;100.00
55916;BME280;41826;53.246;-6.670;2023-07-20T03:50:58;99821.63;;;14.81;100.00
55916;BME280;41826;53.246;-6.670;2023-07-20T03:53:23;99890.53;;;14.58;100.00
55916;BME280;41826;53.246;-6.670;2023-07-20T03:55:50;100100.75;;;14.37;100.00
55916;BME280;41826;53.246;-6.670;2023-07-20T03:58:16;100211.91;;;14.27;100.00
55916;BME280;41826;53.246;-6.670;2023-07-20T04:00:46;100111.31;;;14.37;100.00
55916;BME280;41826;53.246;-6.670;2023-07-20T04:03:12;100032.63;;;14.47;100.00
55916;BME280;41826;53.246;-6.670;2023-07-20T04:05:37;99934.13;;;14.68;100.00
55916;BME280;41826;53.246;-6.670;2023-07-20T04:08:03;99844.81;;;14.79;100.00
55916;BME280;41826;53.246;-6.670;2023-07-20T04:10:28;99777.97;;;14.85;100.00
55916;BME280;41826;53.246;-6.670;2023-07-20T04:12:54;99735.47;;;14.80;100.00
55916;BME280;41826;53.246;-6.670;2023-07-20T04:15:19;99714.72;;;14.77;100.00
55916;BME280;41826;53.246;-6.670;2023-07-20T04:17:45;99698.88;;;14.77;100.00
55916;BME280;41826;53.246;-6.670;2023-07-20T04:20:10;99727.25;;;14.68;100.00
55916;BME280;41826;53.246;-6.670;2023-07-20T04:22:36;99712.59;;;14.65;100.00
55916;BME280;41826;53.246;-6.670;2023-07-20T04:25:01;99703.69;;;14.66;100.00
55916;BME280;41826;53.246;-6.670;2023-07-20T04:27:26;99702.66;;;14.67;100.00
55916;BME280;41826;53.246;-6.670;2023-07-20T04:29:52;99670.00;;;14.75;100.00
55916;BME280;41826;53.246;-6.670;2023-07-20T04:32:17;99672.16;;;14.65;100.00
55916;BME280;41826;53.246;-6.670;2023-07-20T04:34:43;99770.75;;;14.44;100.00
55916;BME280;41826;53.246;-6.670;2023-07-20T04:37:08;99784.13;;;14.42;100.00
55916;BME280;41826;53.246;-6.670;2023-07-20T04:39:34;99762.25;;;14.48;100.00
55916;BME280;41826;53.246;-6.670;2023-07-20T04:41:59;99866.44;;;14.24;100.00
55916;BME280;41826;53.246;-6.670;2023-07-20T04:44:25;99910.66;;;14.22;100.00
55916;BME280;41826;53.246;-6.670;2023-07-20T04:46:50;99993.91;;;14.18;100.00
55916;BME280;41826;53.246;-6.670;2023-07-20T04:49:15;99983.41;;;14.10;100.00
55916;BME280;41826;53.246;-6.670;2023-07-20T04:51:41;100080.81;;;13.90;100.00
55916;BME280;41826;53.246;-6.670;2023-07-20T04:54:06;100188.97;;;13.67;100.00
55916;BME280;41826;53.246;-6.670;2023-07-20T04:56:31;100288.28;;;13.60;100.00
55916;BME280;41826;53.246;-6.670;2023-07-20T04:58:58;100385.56;;;13.55;100.00
55916;BME280;41826;53.246;-6.670;2023-07-20T05:01:23;100468.00;;;13.40;100.00
55916;BME280;41826;53.246;-6.670;2023-07-20T05:03:49;100591.06;;;13.23;100.00
55916;BME280;41826;53.246;-6.670;2023-07-20T05:06:15;100687.09;;;13.13;100.00
55916;BME280;41826;53.246;-6.670;2023-07-20T05:08:40;100813.38;;;12.98;100.00
55916;BME280;41826;53.246;-6.670;2023-07-20T05:11:06;100921.56;;;12.96;100.00
55916;BME280;41826;53.246;-6.670;2023-07-20T05:13:32;100991.22;;;13.12;100.00
55916;BME280;41826;53.246;-6.670;2023-07-20T05:15:59;101035.53;;;13.16;100.00
55916;BME280;41826;53.246;-6.670;2023-07-20T05:18:24;101067.94;;;13.09;100.00
55916;BME280;41826;53.246;-6.670;2023-07-20T05:20:52;101072.53;;;13.07;100.00
55916;BME280;41826;53.246;-6.670;2023-07-20T05:23:18;101111.03;;;13.17;100.00
55916;BME280;41826;53.246;-6.670;2023-07-20T05:25:44;101090.72;;;13.28;100.00
55916;BME280;41826;53.246;-6.670;2023-07-20T05:28:10;101065.03;;;13.30;100.00
55916;BME280;41826;53.246;-6.670;2023-07-20T05:30:35;101002.63;;;13.38;100.00
55916;BME280;41826;53.246;-6.670;2023-07-20T05:33:01;100927.03;;;13.47;100.00
55916;BME280;41826;53.246;-6.670;2023-07-20T05:35:26;100870.25;;;13.69;100.00
55916;BME280;41826;53.246;-6.670;2023-07-20T05:37:52;100871.25;;;13.68;100.00
55916;BME280;41826;53.246;-6.670;2023-07-20T05:40:17;100886.19;;;13.59;100.00
55916;BME280;41826;53.246;-6.670;2023-07-20T05:42:45;100835.94;;;13.69;100.00
55916;BME280;41826;53.246;-6.670;2023-07-20T05:45:11;100842.44;;;13.91;100.00
55916;BME280;41826;53.246;-6.670;2023-07-20T05:47:37;100843.72;;;13.71;100.00
55916;BME280;41826;53.246;-6.670;2023-07-20T05:50:02;100874.69;;;13.60;100.00
55916;BME280;41826;53.246;-6.670;2023-07-20T05:52:29;100914.38;;;13.59;100.00
55916;BME280;41826;53.246;-6.670;2023-07-20T05:54:55;100879.50;;;13.73;100.00
55916;BME280;41826;53.246;-6.670;2023-07-20T05:57:20;100809.75;;;13.76;100.00
55916;BME280;41826;53.246;-6.670;2023-07-20T05:59:46;100850.16;;;13.84;100.00
55916;BME280;41826;53.246;-6.670;2023-07-20T06:02:11;100825.13;;;13.88;100.00
55916;BME280;41826;53.246;-6.670;2023-07-20T06:04:39;100732.28;;;13.93;100.00
55916;BME280;41826;53.246;-6.670;2023-07-20T06:07:04;100600.44;;;14.00;100.00
55916;BME280;41826;53.246;-6.670;2023-07-20T06:09:30;100346.53;;;14.36;100.00
55916;BME280;41826;53.246;-6.670;2023-07-20T06:11:55;100221.97;;;14.47;100.00
55916;BME280;41826;53.246;-6.670;2023-07-20T06:14:21;100120.41;;;14.49;100.00
55916;BME280;41826;53.246;-6.670;2023-07-20T06:16:47;100015.50;;;14.58;100.00
55916;BME280;41826;53.246;-6.670;2023-07-20T06:19:12;99917.44;;;14.68;100.00
55916;BME280;41826;53.246;-6.670;2023-07-20T06:21:38;99906.97;;;14.74;100.00
55916;BME280;41826;53.246;-6.670;2023-07-20T06:24:04;99855.16;;;14.80;100.00
55916;BME280;41826;53.246;-6.670;2023-07-20T06:26:31;99868.38;;;14.80;100.00
55916;BME280;41826;53.246;-6.670;2023-07-20T06:28:57;99855.38;;;14.79;100.00
55916;BME280;41826;53.246;-6.670;2023-07-20T06:31:23;99862.91;;;14.82;100.00
55916;BME280;41826;53.246;-6.670;2023-07-20T06:33:48;99800.16;;;14.90;100.00
55916;BME280;41826;53.246;-6.670;2023-07-20T06:36:17;99773.16;;;14.95;100.00
55916;BME280;41826;53.246;-6.670;2023-07-20T06:38:42;99830.19;;;14.83;100.00
55916;BME280;41826;53.246;-6.670;2023-07-20T06:41:08;99877.59;;;14.91;100.00
55916;BME280;41826;53.246;-6.670;2023-07-20T06:43:33;99908.22;;;14.79;100.00
55916;BME280;41826;53.246;-6.670;2023-07-20T06:46:00;99853.06;;;14.97;100.00
55916;BME280;41826;53.246;-6.670;2023-07-20T06:48:25;99834.41;;;15.05;100.00
55916;BME280;41826;53.246;-6.670;2023-07-20T06:50:50;99905.28;;;14.95;100.00
55916;BME280;41826;53.246;-6.670;2023-07-20T06:53:17;99921.97;;;14.95;100.00
55916;BME280;41826;53.246;-6.670;2023-07-20T06:55:43;99999.56;;;15.09;100.00
55916;BME280;41826;53.246;-6.670;2023-07-20T06:58:09;100104.22;;;14.67;100.00
55916;BME280;41826;53.246;-6.670;2023-07-20T07:00:34;100082.25;;;15.03;100.00
55916;BME280;41826;53.246;-6.670;2023-07-20T07:03:00;100024.19;;;15.38;100.00
55916;BME280;41826;53.246;-6.670;2023-07-20T07:05:25;100029.19;;;15.54;100.00
55916;BME280;41826;53.246;-6.670;2023-07-20T07:07:50;99925.19;;;15.82;100.00
55916;BME280;41826;53.246;-6.670;2023-07-20T07:10:16;99879.06;;;16.18;100.00
55916;BME280;41826;53.246;-6.670;2023-07-20T07:12:41;99896.50;;;16.54;100.00
55916;BME280;41826;53.246;-6.670;2023-07-20T07:15:07;99892.81;;;16.75;100.00
55916;BME280;41826;53.246;-6.670;2023-07-20T07:17:34;99865.69;;;16.66;100.00
55916;BME280;41826;53.246;-6.670;2023-07-20T07:20:00;99849.41;;;16.96;100.00
55916;BME280;41826;53.246;-6.670;2023-07-20T07:22:27;99840.41;;;17.10;100.00
55916;BME280;41826;53.246;-6.670;2023-07-20T07:24:52;99732.56;;;17.42;100.00
55916;BME280;41826;53.246;-6.670;2023-07-20T07:27:19;99649.31;;;17.05;100.00
55916;BME280;41826;53.246;-6.670;2023-07-20T07:29:44;99720.34;;;16.76;100.00
55916;BME280;41826;53.246;-6.670;2023-07-20T07:32:10;99765.94;;;17.18;100.00
55916;BME280;41826;53.246;-6.670;2023-07-20T07:34:37;99782.16;;;17.42;100.00
55916;BME280;41826;53.246;-6.670;2023-07-20T07:37:03;99686.81;;;17.79;100.00
55916;BME280;41826;53.246;-6.670;2023-07-20T07:39:29;99580.31;;;17.68;100.00
55916;BME280;41826;53.246;-6.670;2023-07-20T07:41:55;99625.59;;;17.17;100.00
55916;BME280;41826;53.246;-6.670;2023-07-20T07:44:21;99625.53;;;17.55;100.00
55916;BME280;41826;53.246;-6.670;2023-07-20T07:46:46;99641.50;;;17.17;100.00
55916;BME280;41826;53.246;-6.670;2023-07-20T07:49:12;99682.44;;;16.82;100.00
55916;BME280;41826;53.246;-6.670;2023-07-20T07:51:37;99722.78;;;17.43;100.00
55916;BME280;41826;53.246;-6.670;2023-07-20T07:54:03;99639.75;;;17.36;100.00
55916;BME280;41826;53.246;-6.670;2023-07-20T07:56:28;99660.50;;;18.02;100.00
55916;BME280;41826;53.246;-6.670;2023-07-20T07:58:53;99542.56;;;18.28;100.00
55916;BME280;41826;53.246;-6.670;2023-07-20T08:01:19;99526.63;;;17.91;100.00
55916;BME280;41826;53.246;-6.670;2023-07-20T08:03:45;99578.50;;;17.62;100.00
55916;BME280;41826;53.246;-6.670;2023-07-20T08:06:13;99527.28;;;17.62;100.00
55916;BME280;41826;53.246;-6.670;2023-07-20T08:08:38;99456.38;;;18.24;100.00
55916;BME280;41826;53.246;-6.670;2023-07-20T08:11:04;99241.75;;;19.09;100.00
55916;BME280;41826;53.246;-6.670;2023-07-20T08:13:29;99233.69;;;19.03;100.00
55916;BME280;41826;53.246;-6.670;2023-07-20T08:15:55;99337.22;;;17.79;100.00
55916;BME280;41826;53.246;-6.670;2023-07-20T08:18:22;99250.44;;;17.80;100.00
55916;BME280;41826;53.246;-6.670;2023-07-20T08:20:47;99250.19;;;17.51;100.00
55916;BME280;41826;53.246;-6.670;2023-07-20T08:23:14;99220.06;;;17.75;100.00
55916;BME280;41826;53.246;-6.670;2023-07-20T08:25:41;99248.16;;;18.96;100.00
55916;BME280;41826;53.246;-6.670;2023-07-20T08:28:10;99354.50;;;19.43;100.00
55916;BME280;41826;53.246;-6.670;2023-07-20T08:30:44;99448.69;;;19.07;100.00
55916;BME280;41826;53.246;-6.670;2023-07-20T08:33:12;99487.53;;;19.08;100.00
55916;BME280;41826;53.246;-6.670;2023-07-20T08:35:38;99563.72;;;19.56;100.00
55916;BME280;41826;53.246;-6.670;2023-07-20T08:38:03;99570.81;;;20.09;100.00
55916;BME280;41826;53.246;-6.670;2023-07-20T08:40:33;99560.84;;;20.04;100.00
55916;BME280;41826;53.246;-6.670;2023-07-20T08:42:59;99583.88;;;20.22;100.00
55916;BME280;41826;53.246;-6.670;2023-07-20T08:45:34;99737.63;;;20.10;100.00
55916;BME280;41826;53.246;-6.670;2023-07-20T08:48:02;99738.47;;;20.22;100.00
55916;BME280;41826;53.246;-6.670;2023-07-20T08:50:30;99728.09;;;20.56;100.00
55916;BME280;41826;53.246;-6.670;2023-07-20T08:52:57;99801.06;;;20.31;100.00
55916;BME280;41826;53.246;-6.670;2023-07-20T08:55:24;99718.78;;;20.47;100.00
55916;BME280;41826;53.246;-6.670;2023-07-20T08:57:55;99762.72;;;20.44;100.00
55916;BME280;41826;53.246;-6.670;2023-07-20T09:00:21;99794.13;;;20.42;100.00
55916;BME280;41826;53.246;-6.670;2023-07-20T09:02:49;99742.66;;;20.42;100.00
55916;BME280;41826;53.246;-6.670;2023-07-20T09:05:17;99781.03;;;20.52;100.00
55916;BME280;41826;53.246;-6.670;2023-07-20T09:07:43;99797.84;;;21.00;100.00
55916;BME280;41826;53.246;-6.670;2023-07-20T09:10:09;99847.50;;;20.24;100.00
55916;BME280;41826;53.246;-6.670;2023-07-20T09:12:37;99713.56;;;20.52;100.00
55916;BME280;41826;53.246;-6.670;2023-07-20T09:15:04;99675.28;;;20.82;100.00
55916;BME280;41826;53.246;-6.670;2023-07-20T09:17:29;99828.78;;;20.42;100.00
55916;BME280;41826;53.246;-6.670;2023-07-20T09:19:55;99689.34;;;20.65;100.00
55916;BME280;41826;53.246;-6.670;2023-07-20T09:22:20;99814.31;;;20.73;100.00
55916;BME280;41826;53.246;-6.670;2023-07-20T09:24:46;99643.09;;;21.00;100.00
55916;BME280;41826;53.246;-6.670;2023-07-20T09:27:11;99662.06;;;21.15;100.00
55916;BME280;41826;53.246;-6.670;2023-07-20T09:29:52;99835.09;;;20.71;100.00
55916;BME280;41826;53.246;-6.670;2023-07-20T09:32:19;99836.38;;;21.04;100.00
55916;BME280;41826;53.246;-6.670;2023-07-20T09:34:46;99744.38;;;21.47;100.00
55916;BME280;41826;53.246;-6.670;2023-07-20T09:37:11;99803.19;;;21.12;100.00
55916;BME280;41826;53.246;-6.670;2023-07-20T09:39:44;99762.09;;;21.13;100.00
55916;BME280;41826;53.246;-6.670;2023-07-20T09:42:13;99836.00;;;20.65;100.00
55916;BME280;41826;53.246;-6.670;2023-07-20T09:44:39;99763.59;;;21.09;100.00
55916;BME280;41826;53.246;-6.670;2023-07-20T09:47:06;99822.69;;;21.00;100.00
55916;BME280;41826;53.246;-6.670;2023-07-20T09:49:31;99785.78;;;21.09;100.00
55916;BME280;41826;53.246;-6.670;2023-07-20T09:52:01;99869.09;;;20.46;100.00
55916;BME280;41826;53.246;-6.670;2023-07-20T09:54:28;99763.53;;;20.68;100.00
55916;BME280;41826;53.246;-6.670;2023-07-20T09:56:55;99718.41;;;20.78;100.00
55916;BME280;41826;53.246;-6.670;2023-07-20T09:59:21;99661.38;;;21.08;100.00
55916;BME280;41826;53.246;-6.670;2023-07-20T10:01:47;99654.66;;;21.34;100.00
55916;BME280;41826;53.246;-6.670;2023-07-20T10:04:13;99731.59;;;21.49;100.00
55916;BME280;41826;53.246;-6.670;2023-07-20T10:06:42;99920.56;;;20.34;100.00
55916;BME280;41826;53.246;-6.670;2023-07-20T10:09:10;99851.66;;;19.89;100.00
55916;BME280;41826;53.246;-6.670;2023-07-20T10:11:40;99862.28;;;20.50;100.00
55916;BME280;41826;53.246;-6.670;2023-07-20T10:14:07;99922.19;;;20.77;100.00
55916;BME280;41826;53.246;-6.670;2023-07-20T10:16:38;99776.31;;;21.30;100.00
55916;BME280;41826;53.246;-6.670;2023-07-20T10:19:16;99775.97;;;21.27;100.00
55916;BME280;41826;53.246;-6.670;2023-07-20T10:21:48;99790.38;;;21.26;100.00
55916;BME280;41826;53.246;-6.670;2023-07-20T10:24:17;99731.63;;;21.37;100.00
55916;BME280;41826;53.246;-6.670;2023-07-20T10:26:43;99774.69;;;21.41;100.00
55916;BME280;41826;53.246;-6.670;2023-07-20T10:29:09;99915.16;;;21.07;100.00
55916;BME280;41826;53.246;-6.670;2023-07-20T10:31:36;99850.97;;;21.25;100.00
55916;BME280;41826;53.246;-6.670;2023-07-20T10:34:03;99885.91;;;20.76;100.00
55916;BME280;41826;53.246;-6.670;2023-07-20T10:36:28;99793.22;;;20.84;100.00
55916;BME280;41826;53.246;-6.670;2023-07-20T10:38:55;99881.88;;;20.44;100.00
55916;BME280;41826;53.246;-6.670;2023-07-20T10:41:37;99850.91;;;20.43;100.00
55916;BME280;41826;53.246;-6.670;2023-07-20T10:44:04;99814.56;;;20.60;100.00
55916;BME280;41826;53.246;-6.670;2023-07-20T10:49:06;99825.75;;;20.39;100.00
55916;BME280;41826;53.246;-6.670;2023-07-20T10:51:58;99793.13;;;20.01;100.00
55916;BME280;41826;53.246;-6.670;2023-07-20T10:56:49;99843.31;;;19.86;100.00
55916;BME280;41826;53.246;-6.670;2023-07-20T11:01:59;99707.63;;;20.03;100.00
55916;BME280;41826;53.246;-6.670;2023-07-20T11:07:03;99726.53;;;20.48;100.00
55916;BME280;41826;53.246;-6.670;2023-07-20T11:09:33;99940.00;;;20.05;100.00
55916;BME280;41826;53.246;-6.670;2023-07-20T11:14:43;99809.75;;;19.66;100.00
55916;BME280;41826;53.246;-6.670;2023-07-20T11:17:13;99768.13;;;20.38;100.00
55916;BME280;41826;53.246;-6.670;2023-07-20T11:19:39;99942.16;;;19.96;100.00
55916;BME280;41826;53.246;-6.670;2023-07-20T11:22:08;99809.69;;;20.81;100.00
55916;BME280;41826;53.246;-6.670;2023-07-20T11:24:34;100024.78;;;20.63;100.00
55916;BME280;41826;53.246;-6.670;2023-07-20T11:27:00;100057.53;;;19.97;100.00
55916;BME280;41826;53.246;-6.670;2023-07-20T11:29:26;99841.25;;;20.72;100.00
55916;BME280;41826;53.246;-6.670;2023-07-20T11:31:52;100049.78;;;20.13;100.00
55916;BME280;41826;53.246;-6.670;2023-07-20T11:34:19;99917.66;;;20.78;100.00
55916;BME280;41826;53.246;-6.670;2023-07-20T11:36:48;99803.84;;;21.19;100.00
55916;BME280;41826;53.246;-6.670;2023-07-20T11:39:16;99836.34;;;21.39;100.00
55916;BME280;41826;53.246;-6.670;2023-07-20T11:41:50;99812.28;;;21.51;100.00
55916;BME280;41826;53.246;-6.670;2023-07-20T11:44:16;99880.22;;;21.43;100.00
55916;BME280;41826;53.246;-6.670;2023-07-20T11:46:43;100006.59;;;21.14;100.00
55916;BME280;41826;53.246;-6.670;2023-07-20T11:49:09;99864.75;;;21.57;100.00
55916;BME280;41826;53.246;-6.670;2023-07-20T11:51:35;99948.91;;;21.83;100.00
55916;BME280;41826;53.246;-6.670;2023-07-20T11:54:02;100043.19;;;21.25;100.00
55916;BME280;41826;53.246;-6.670;2023-07-20T11:56:28;100170.50;;;20.76;100.00
55916;BME280;41826;53.246;-6.670;2023-07-20T11:59:00;99920.00;;;21.80;100.00
55916;BME280;41826;53.246;-6.670;2023-07-20T12:01:27;100099.22;;;22.02;100.00
55916;BME280;41826;53.246;-6.670;2023-07-20T12:04:03;99916.53;;;22.37;100.00
55916;BME280;41826;53.246;-6.670;2023-07-20T12:06:29;100207.78;;;22.15;100.00
55916;BME280;41826;53.246;-6.670;2023-07-20T12:08:56;100284.53;;;21.84;100.00
55916;BME280;41826;53.246;-6.670;2023-07-20T12:11:34;99910.09;;;22.21;100.00
55916;BME280;41826;53.246;-6.670;2023-07-20T12:14:00;100047.13;;;22.17;100.00
55916;BME280;41826;53.246;-6.670;2023-07-20T12:16:27;100037.03;;;22.07;100.00
55916;BME280;41826;53.246;-6.670;2023-07-20T12:19:19;99931.28;;;22.11;100.00
55916;BME280;41826;53.246;-6.670;2023-07-20T12:21:44;99892.06;;;22.17;100.00
55916;BME280;41826;53.246;-6.670;2023-07-20T12:24:11;99890.78;;;22.31;100.00
55916;BME280;41826;53.246;-6.670;2023-07-20T12:26:37;99873.03;;;22.42;100.00
55916;BME280;41826;53.246;-6.670;2023-07-20T12:29:02;99983.25;;;22.03;100.00
55916;BME280;41826;53.246;-6.670;2023-07-20T12:31:29;100065.88;;;21.81;100.00
55916;BME280;41826;53.246;-6.670;2023-07-20T12:33:57;99982.72;;;21.78;100.00
55916;BME280;41826;53.246;-6.670;2023-07-20T12:36:24;100059.63;;;21.10;100.00
55916;BME280;41826;53.246;-6.670;2023-07-20T12:38:49;99942.75;;;21.71;100.00
55916;BME280;41826;53.246;-6.670;2023-07-20T12:41:15;100158.53;;;21.15;100.00
55916;BME280;41826;53.246;-6.670;2023-07-20T12:43:41;100064.25;;;21.45;100.00
55916;BME280;41826;53.246;-6.670;2023-07-20T12:46:07;100023.72;;;21.72;100.00
55916;BME280;41826;53.246;-6.670;2023-07-20T12:48:33;99938.19;;;21.95;100.00
55916;BME280;41826;53.246;-6.670;2023-07-20T12:50:59;100020.31;;;22.00;100.00